createdAt,value
2022-10-18T00:00:47.193Z,9.98
2022-10-18T00:03:13.853Z,9.35
2022-10-18T00:05:40.528Z,9.70
2022-10-18T00:08:07.169Z,9.00
2022-10-18T00:10:33.904Z,9.00
2022-10-18T00:13:00.679Z,8.60
2022-10-18T00:15:27.380Z,8.23
2022-10-18T00:17:54.085Z,8.45
2022-10-18T00:20:20.787Z,9.40
2022-10-18T00:22:47.428Z,9.67
2022-10-18T00:25:15.808Z,8.15
2022-10-18T00:27:42.617Z,8.85
2022-10-18T00:30:09.883Z,8.50
2022-10-18T00:32:41.125Z,8.45
2022-10-18T00:35:09.149Z,7.67
2022-10-18T00:37:36.179Z,7.38
2022-10-18T00:40:03.786Z,8.50
2022-10-18T00:42:33.440Z,7.40
2022-10-18T00:45:12.504Z,6.85
2022-10-18T00:47:39.333Z,6.93
2022-10-18T00:50:07.845Z,7.50
2022-10-18T00:52:40.424Z,7.53
2022-10-18T00:55:08.749Z,8.70
2022-10-18T00:57:36.395Z,7.15
2022-10-18T01:00:09.584Z,7.27
2022-10-18T01:02:38.075Z,7.40
2022-10-18T01:05:06.138Z,7.22
2022-10-18T01:08:12.487Z,6.93
2022-10-18T01:11:04.700Z,7.30
2022-10-18T01:13:59.513Z,6.20
2022-10-18T01:16:57.160Z,6.00
2022-10-18T01:19:39.899Z,6.38
2022-10-18T01:22:17.200Z,8.13
2022-10-18T01:24:52.514Z,7.97
2022-10-18T01:27:49.479Z,7.03
2022-10-18T01:30:38.076Z,7.20
2022-10-18T01:33:14.793Z,7.05
2022-10-18T01:35:49.873Z,6.90
2022-10-18T01:38:19.385Z,6.38
2022-10-18T01:40:48.997Z,7.13
2022-10-18T01:43:17.702Z,7.20
2022-10-18T01:45:44.568Z,7.10
2022-10-18T01:48:12.767Z,7.47
2022-10-18T01:50:40.165Z,7.10
2022-10-18T01:53:20.428Z,6.97
2022-10-18T01:55:54.819Z,6.43
2022-10-18T01:58:26.827Z,7.75
2022-10-18T02:01:06.714Z,7.25
2022-10-18T02:03:37.797Z,9.30
2022-10-18T02:06:12.235Z,9.17
2022-10-18T02:08:50.279Z,8.82
2022-10-18T02:11:18.210Z,10.10
2022-10-18T02:13:47.853Z,8.75
2022-10-18T02:16:19.312Z,8.57
2022-10-18T02:18:51.900Z,8.63
2022-10-18T02:21:21.061Z,7.88
2022-10-18T02:23:48.971Z,8.68
2022-10-18T02:26:16.266Z,7.32
2022-10-18T02:28:43.725Z,8.48
2022-10-18T02:31:21.733Z,8.07
2022-10-18T02:33:57.141Z,6.95
2022-10-18T02:37:00.437Z,7.13
2022-10-18T02:39:36.531Z,6.22
2022-10-18T02:42:08.291Z,6.95
2022-10-18T02:44:35.274Z,7.10
2022-10-18T02:47:02.554Z,6.22
2022-10-18T02:49:29.284Z,6.50
2022-10-18T02:51:56.011Z,6.60
2022-10-18T02:54:23.700Z,7.85
2022-10-18T02:56:50.906Z,7.10
2022-10-18T02:59:17.976Z,7.68
2022-10-18T03:01:45.149Z,6.60
2022-10-18T03:04:12.119Z,7.00
2022-10-18T03:06:38.850Z,6.93
2022-10-18T03:09:06.552Z,5.97
2022-10-18T03:11:33.433Z,5.60
2022-10-18T03:14:00.203Z,5.50
2022-10-18T03:16:27.666Z,5.80
2022-10-18T03:18:54.405Z,5.63
2022-10-18T03:21:21.110Z,6.10
2022-10-18T03:23:47.832Z,6.00
2022-10-18T03:26:14.546Z,5.55
2022-10-18T03:28:41.346Z,5.18
2022-10-18T03:31:08.073Z,6.72
2022-10-18T03:33:34.771Z,4.97
2022-10-18T03:36:01.629Z,5.03
2022-10-18T03:38:28.339Z,5.20
2022-10-18T03:40:55.314Z,5.65
2022-10-18T03:43:22.383Z,5.40
2022-10-18T03:45:49.099Z,5.40
2022-10-18T03:48:15.907Z,6.28
2022-10-18T03:50:43.521Z,6.78
2022-10-18T03:53:10.411Z,6.68
2022-10-18T03:55:37.674Z,5.45
2022-10-18T03:58:04.649Z,5.20
2022-10-18T04:00:31.571Z,5.20
2022-10-18T04:02:58.762Z,5.28
2022-10-18T04:05:28.100Z,4.47
2022-10-18T04:07:55.175Z,4.30
2022-10-18T04:10:22.021Z,4.17
2022-10-18T04:12:48.838Z,4.03
2022-10-18T04:15:15.773Z,4.28
2022-10-18T04:17:42.811Z,4.72
2022-10-18T04:20:09.924Z,5.18
2022-10-18T04:22:36.687Z,4.87
2022-10-18T04:25:04.772Z,5.32
2022-10-18T04:27:31.913Z,4.57
2022-10-18T04:29:59.113Z,5.70
2022-10-18T04:32:27.841Z,5.43
2022-10-18T04:34:54.528Z,6.67
2022-10-18T04:37:21.324Z,6.15
2022-10-18T04:39:51.211Z,5.72
2022-10-18T04:42:20.986Z,5.28
2022-10-18T04:44:47.810Z,5.90
2022-10-18T04:47:15.144Z,5.10
2022-10-18T04:49:41.913Z,5.28
2022-10-18T04:52:08.903Z,4.80
2022-10-18T04:54:35.870Z,5.80
2022-10-18T04:57:02.603Z,5.65
2022-10-18T04:59:29.400Z,4.73
2022-10-18T05:01:56.239Z,4.93
2022-10-18T05:04:23.067Z,4.65
2022-10-18T05:06:49.784Z,5.28
2022-10-18T05:09:16.555Z,5.28
2022-10-18T05:11:43.296Z,5.37
2022-10-18T05:14:10.821Z,5.72
2022-10-18T05:16:37.593Z,5.85
2022-10-18T05:19:05.883Z,5.05
2022-10-18T05:21:33.362Z,4.88
2022-10-18T05:24:00.108Z,4.87
2022-10-18T05:26:27.187Z,5.43
2022-10-18T05:28:53.954Z,4.90
2022-10-18T05:31:21.278Z,5.10
2022-10-18T05:33:47.993Z,4.55
2022-10-18T05:36:14.750Z,4.57
2022-10-18T05:38:42.935Z,3.70
2022-10-18T05:41:10.392Z,4.15
2022-10-18T05:43:37.221Z,4.10
2022-10-18T05:46:06.482Z,4.65
2022-10-18T05:48:34.981Z,3.97
2022-10-18T05:51:02.291Z,3.72
2022-10-18T05:53:36.768Z,4.35
2022-10-18T05:56:05.399Z,3.33
2022-10-18T05:58:32.373Z,3.50
2022-10-18T06:01:02.489Z,3.60
2022-10-18T06:03:30.860Z,3.72
2022-10-18T06:06:09.515Z,4.00
2022-10-18T06:08:37.473Z,4.03
2022-10-18T06:11:18.228Z,4.00
2022-10-18T06:13:48.471Z,3.60
2022-10-18T06:16:17.966Z,4.45
2022-10-18T06:18:51.753Z,4.45
2022-10-18T06:21:19.369Z,4.72
2022-10-18T06:23:54.221Z,5.10
2022-10-18T06:26:21.224Z,4.37
2022-10-18T06:28:48.440Z,4.63
2022-10-18T06:31:16.081Z,4.53
2022-10-18T06:33:43.030Z,4.70
2022-10-18T06:36:18.557Z,4.50
2022-10-18T06:38:45.586Z,4.40
2022-10-18T06:41:12.430Z,4.53
2022-10-18T06:43:39.154Z,3.72
2022-10-18T06:46:08.110Z,3.63
2022-10-18T06:48:36.613Z,3.80
2022-10-18T06:51:05.432Z,3.50
2022-10-18T06:53:34.430Z,3.70
2022-10-18T06:56:03.309Z,4.20
2022-10-18T06:58:30.804Z,4.38
2022-10-18T07:00:58.825Z,3.92
2022-10-18T07:03:26.298Z,3.87
2022-10-18T07:05:52.985Z,4.50
2022-10-18T07:08:19.792Z,5.43
2022-10-18T07:10:53.340Z,5.10
2022-10-18T07:13:31.939Z,5.20
2022-10-18T07:16:09.789Z,3.97
2022-10-18T07:18:40.635Z,3.25
2022-10-18T07:21:12.921Z,2.78
2022-10-18T07:23:41.780Z,4.13
2022-10-18T07:26:31.449Z,4.65
2022-10-18T07:29:01.565Z,5.00
2022-10-18T07:31:30.897Z,4.15
2022-10-18T07:33:58.040Z,4.20
2022-10-18T07:36:25.870Z,3.90
2022-10-18T07:38:53.181Z,3.70
2022-10-18T07:41:21.236Z,3.60
2022-10-18T07:43:50.948Z,3.60
2022-10-18T07:46:18.606Z,3.90
2022-10-18T07:48:45.408Z,4.18
2022-10-18T07:51:12.352Z,4.57
2022-10-18T07:53:39.449Z,4.27
2022-10-18T07:56:11.529Z,4.13
2022-10-18T07:58:38.317Z,4.78
2022-10-18T08:01:07.088Z,4.43
2022-10-18T08:03:34.582Z,4.80
2022-10-18T08:06:01.246Z,4.57
2022-10-18T08:08:28.953Z,5.05
2022-10-18T08:10:55.882Z,5.32
2022-10-18T08:13:22.555Z,5.10
2022-10-18T08:15:49.235Z,4.28
2022-10-18T08:18:16.000Z,4.77
2022-10-18T08:20:44.648Z,4.45
2022-10-18T08:23:11.704Z,4.57
2022-10-18T08:25:38.427Z,4.40
2022-10-18T08:28:05.305Z,4.65
2022-10-18T08:30:32.009Z,4.80
2022-10-18T08:32:58.714Z,4.90
2022-10-18T08:35:25.494Z,5.40
2022-10-18T08:37:52.279Z,5.00
2022-10-18T08:40:19.150Z,4.70
2022-10-18T08:43:07.130Z,5.40
2022-10-18T08:45:42.251Z,5.35
2022-10-18T08:48:21.773Z,5.05
2022-10-18T08:50:49.720Z,4.18
2022-10-18T08:53:46.592Z,4.30
2022-10-18T08:56:15.036Z,3.90
2022-10-18T08:58:46.551Z,4.20
2022-10-18T09:01:32.454Z,4.40
2022-10-18T09:04:25.342Z,4.03
2022-10-18T09:07:23.865Z,3.78
2022-10-18T09:10:22.653Z,3.10
2022-10-18T09:12:58.413Z,2.42
2022-10-18T09:15:35.461Z,3.30
2022-10-18T09:18:08.189Z,3.10
2022-10-18T09:20:57.954Z,3.10
2022-10-18T09:23:49.636Z,2.73
2022-10-18T09:26:20.676Z,3.50
2022-10-18T09:28:53.293Z,2.70
2022-10-18T09:31:24.813Z,1.90
2022-10-18T09:33:58.675Z,1.85
2022-10-18T09:36:35.494Z,2.07
2022-10-18T09:39:09.919Z,1.67
2022-10-18T09:41:44.688Z,1.30
2022-10-18T09:44:22.182Z,1.15
2022-10-18T09:46:59.898Z,1.80
2022-10-18T09:49:40.324Z,1.50
2022-10-18T09:52:13.872Z,1.27
2022-10-18T09:54:46.773Z,1.75
2022-10-18T09:57:29.512Z,1.25
2022-10-18T09:59:57.885Z,1.75
2022-10-18T10:02:24.651Z,1.00
2022-10-18T10:04:52.128Z,0.90
2022-10-18T10:07:34.964Z,0.70
2022-10-18T10:10:17.213Z,0.80
2022-10-18T10:12:44.215Z,1.45
2022-10-18T10:15:28.169Z,0.70
2022-10-18T10:18:02.017Z,0.60
2022-10-18T10:20:50.008Z,0.60
2022-10-18T10:23:46.012Z,0.65
2022-10-18T10:26:33.487Z,0.57
2022-10-18T10:29:00.296Z,0.80
2022-10-18T10:31:34.297Z,0.80
2022-10-18T10:34:29.267Z,0.88
2022-10-18T10:36:56.196Z,1.00
2022-10-18T10:39:24.648Z,0.80
2022-10-18T10:41:57.573Z,0.70
2022-10-18T10:44:33.873Z,0.60
2022-10-18T10:47:00.584Z,0.68
2022-10-18T10:49:47.789Z,0.60
2022-10-18T10:52:37.208Z,0.80
2022-10-18T10:55:11.309Z,0.53
2022-10-18T10:57:52.177Z,0.60
2022-10-18T11:00:41.092Z,0.60
2022-10-18T11:03:28.432Z,0.60
2022-10-18T11:05:57.823Z,0.60
2022-10-18T11:08:36.023Z,0.50
2022-10-18T11:11:28.417Z,0.70
2022-10-18T11:14:26.590Z,0.93
2022-10-18T11:17:21.059Z,0.60
2022-10-18T11:20:12.455Z,0.70
2022-10-18T11:22:58.277Z,0.43
2022-10-18T11:25:47.605Z,0.50
2022-10-18T11:28:36.360Z,1.00
2022-10-18T11:31:36.352Z,0.80
2022-10-18T11:34:36.942Z,0.60
2022-10-18T11:37:30.279Z,0.73
2022-10-18T11:40:39.477Z,0.50
2022-10-18T11:43:57.048Z,0.50
2022-10-18T11:46:49.653Z,0.85
2022-10-18T11:49:37.972Z,0.80
2022-10-18T11:52:09.636Z,0.50
2022-10-18T11:54:48.591Z,0.60
2022-10-18T11:57:46.622Z,0.40
2022-10-18T12:00:24.151Z,0.50
2022-10-18T12:03:15.992Z,0.68
2022-10-18T12:05:45.830Z,0.50
2022-10-18T12:08:26.161Z,0.50
2022-10-18T12:11:05.049Z,0.50
2022-10-18T12:13:57.731Z,0.60
2022-10-18T12:16:49.458Z,0.55
2022-10-18T12:19:29.251Z,0.40
2022-10-18T12:22:03.406Z,0.47
2022-10-18T12:24:32.684Z,0.30
2022-10-18T12:27:01.454Z,0.40
2022-10-18T12:29:37.576Z,0.88
2022-10-18T12:32:14.589Z,0.77
2022-10-18T12:34:44.124Z,0.50
2022-10-18T12:37:32.706Z,0.40
2022-10-18T12:40:11.378Z,0.60
2022-10-18T12:42:48.843Z,0.52
2022-10-18T12:45:27.612Z,0.40
2022-10-18T12:47:58.821Z,0.52
2022-10-18T12:50:30.601Z,0.38
2022-10-18T12:53:12.533Z,0.57
2022-10-18T12:58:14.440Z,0.70
2022-10-18T13:00:41.639Z,0.80
2022-10-18T13:03:16.582Z,0.63
2022-10-18T13:05:54.525Z,0.52
2022-10-18T13:08:28.192Z,0.50
2022-10-18T13:11:10.219Z,0.50
2022-10-18T13:13:53.701Z,0.50
2022-10-18T13:16:23.340Z,0.70
2022-10-18T13:18:55.005Z,0.50
2022-10-18T13:21:46.248Z,0.52
2022-10-18T13:24:26.004Z,0.60
2022-10-18T13:27:31.417Z,0.60
2022-10-18T13:30:24.001Z,0.63
2022-10-18T13:33:06.505Z,0.50
2022-10-18T13:35:55.576Z,0.60
2022-10-18T13:38:49.399Z,0.60
2022-10-18T13:44:23.777Z,0.55
2022-10-18T13:46:51.428Z,0.50
2022-10-18T13:49:40.165Z,0.43
2022-10-18T13:52:06.947Z,0.57
2022-10-18T13:55:11.471Z,0.40
2022-10-18T13:58:00.993Z,0.57
2022-10-18T14:00:36.146Z,0.60
2022-10-18T14:03:51.363Z,0.80
2022-10-18T14:06:39.092Z,0.60
2022-10-18T14:09:25.629Z,0.77
2022-10-18T14:12:09.657Z,0.60
2022-10-18T14:14:45.432Z,0.68
2022-10-18T14:17:28.571Z,0.75
2022-10-18T14:19:58.672Z,0.60
2022-10-18T14:22:38.449Z,0.70
2022-10-18T14:25:37.860Z,0.80
2022-10-18T14:28:31.534Z,0.68
2022-10-18T14:31:13.290Z,0.50
2022-10-18T14:33:44.992Z,0.70
2022-10-18T14:36:15.807Z,0.63
2022-10-18T14:38:55.084Z,0.50
2022-10-18T14:41:27.777Z,0.70
2022-10-18T14:44:29.979Z,0.77
2022-10-18T14:47:16.690Z,0.43
2022-10-18T14:49:47.289Z,0.50
2022-10-18T14:52:17.311Z,0.90
2022-10-18T14:54:44.527Z,0.80
2022-10-18T14:57:22.247Z,0.57
2022-10-18T14:59:52.335Z,0.60
2022-10-18T15:02:26.971Z,0.75
2022-10-18T15:05:09.937Z,0.50
2022-10-18T15:07:37.310Z,0.50
2022-10-18T15:10:05.459Z,0.50
2022-10-18T15:12:36.904Z,0.70
2022-10-18T15:15:27.210Z,0.60
2022-10-18T15:17:55.392Z,0.52
2022-10-18T15:20:31.394Z,0.80
2022-10-18T15:23:27.907Z,0.55
2022-10-18T15:26:21.018Z,0.60
2022-10-18T15:28:54.284Z,0.50
2022-10-18T15:31:29.835Z,0.70
2022-10-18T15:34:10.467Z,0.50
2022-10-18T15:36:37.799Z,0.70
2022-10-18T15:39:21.030Z,0.50
2022-10-18T15:41:58.303Z,0.60
2022-10-18T15:44:47.332Z,0.63
2022-10-18T15:47:16.015Z,0.60
2022-10-18T15:49:45.729Z,0.65
2022-10-18T15:52:36.662Z,0.87
2022-10-18T15:55:31.269Z,0.65
2022-10-18T15:58:22.124Z,0.60
2022-10-18T16:00:50.682Z,0.90
2022-10-18T16:03:18.834Z,0.77
2022-10-18T16:05:46.170Z,0.60
2022-10-18T16:08:22.242Z,0.80
2022-10-18T16:10:49.398Z,0.77
2022-10-18T16:13:16.167Z,0.80
2022-10-18T16:15:42.943Z,0.70
2022-10-18T16:18:18.538Z,0.70
2022-10-18T16:20:46.371Z,0.75
2022-10-18T16:23:23.728Z,0.80
2022-10-18T16:25:50.668Z,1.00
2022-10-18T16:28:22.997Z,1.00
2022-10-18T16:30:59.140Z,1.73
2022-10-18T16:33:25.877Z,0.88
2022-10-18T16:35:55.588Z,1.20
2022-10-18T16:38:36.885Z,1.00
2022-10-18T16:41:07.717Z,1.00
2022-10-18T16:43:35.467Z,1.90
2022-10-18T16:46:04.273Z,0.88
2022-10-18T16:48:35.139Z,1.30
2022-10-18T16:51:02.838Z,1.05
2022-10-18T16:53:31.325Z,1.20
2022-10-18T16:56:04.463Z,1.13
2022-10-18T16:58:33.391Z,1.50
2022-10-18T17:01:02.898Z,2.00
2022-10-18T17:03:37.460Z,1.80
2022-10-18T17:06:12.811Z,1.98
2022-10-18T17:08:39.735Z,2.33
2022-10-18T17:11:06.541Z,2.60
2022-10-18T17:13:33.243Z,2.10
2022-10-18T17:16:00.286Z,2.80
2022-10-18T17:18:27.667Z,3.25
2022-10-18T17:20:54.783Z,4.10
2022-10-18T17:24:17.634Z,2.97
2022-10-18T17:26:44.265Z,2.15
2022-10-18T17:29:11.042Z,2.00
2022-10-18T17:31:38.970Z,1.70
2022-10-18T17:34:06.258Z,2.40
2022-10-18T17:36:33.731Z,1.80
2022-10-18T17:39:00.859Z,1.85
2022-10-18T17:41:28.432Z,1.90
2022-10-18T17:43:55.184Z,2.28
2022-10-18T17:46:23.712Z,5.17
2022-10-18T17:48:50.486Z,2.40
2022-10-18T17:51:17.301Z,1.85
2022-10-18T17:53:44.527Z,2.25
2022-10-18T17:56:12.242Z,2.40
2022-10-18T17:58:39.444Z,2.50
2022-10-18T18:01:14.754Z,2.50
2022-10-18T18:03:41.994Z,2.80
2022-10-18T18:06:13.716Z,2.78
2022-10-18T18:08:40.399Z,3.80
2022-10-18T18:11:07.361Z,3.00
2022-10-18T18:13:34.164Z,2.88
2022-10-18T18:16:21.083Z,3.35
2022-10-18T18:18:50.727Z,2.85
2022-10-18T18:21:17.729Z,2.65
2022-10-18T18:23:44.657Z,3.00
2022-10-18T18:26:11.556Z,2.58
2022-10-18T18:28:38.506Z,2.80
2022-10-18T18:31:09.666Z,2.78
2022-10-18T18:33:37.093Z,2.60
2022-10-18T18:36:04.948Z,2.80
2022-10-18T18:38:33.634Z,2.70
2022-10-18T18:41:23.042Z,3.05
2022-10-18T18:43:58.582Z,3.10
2022-10-18T18:46:27.156Z,3.30
2022-10-18T18:48:54.125Z,3.50
2022-10-18T18:51:21.790Z,3.92
2022-10-18T18:53:48.928Z,4.20
2022-10-18T18:58:48.486Z,4.30
2022-10-18T19:01:21.468Z,4.60
2022-10-18T19:03:51.035Z,4.50
2022-10-18T19:06:29.290Z,4.35
2022-10-18T19:09:04.557Z,4.50
2022-10-18T19:11:34.990Z,4.18
2022-10-18T19:14:02.893Z,4.53
2022-10-18T19:16:37.057Z,4.93
2022-10-18T19:19:10.177Z,4.93
2022-10-18T19:21:39.500Z,4.97
2022-10-18T19:24:07.155Z,4.82
2022-10-18T19:26:35.461Z,4.67
2022-10-18T19:29:05.484Z,5.20
2022-10-18T19:31:34.126Z,4.75
2022-10-18T19:34:02.305Z,5.20
2022-10-18T19:36:30.004Z,5.00
2022-10-18T19:38:57.118Z,4.77
2022-10-18T19:43:56.780Z,5.85
2022-10-18T19:46:23.910Z,5.20
2022-10-18T19:48:50.705Z,5.30
2022-10-18T19:51:25.471Z,4.43
2022-10-18T19:53:55.383Z,4.82
2022-10-18T19:56:23.733Z,6.13
2022-10-18T19:58:50.870Z,5.93
2022-10-18T20:01:18.257Z,6.32
2022-10-18T20:03:45.743Z,6.20
2022-10-18T20:06:13.165Z,5.80
2022-10-18T20:08:40.297Z,5.70
2022-10-18T20:11:09.873Z,5.25
2022-10-18T20:13:37.005Z,4.80
2022-10-18T20:16:05.120Z,4.70
2022-10-18T20:18:31.907Z,4.43
2022-10-18T20:20:58.770Z,4.70
2022-10-18T20:23:25.467Z,5.20
2022-10-18T20:25:57.187Z,5.80
2022-10-18T20:28:25.031Z,5.97
2022-10-18T20:31:31.425Z,4.20
2022-10-18T20:34:03.192Z,5.25
2022-10-18T20:36:31.782Z,5.75
2022-10-18T20:38:59.421Z,5.32
2022-10-18T20:41:29.366Z,5.90
2022-10-18T20:43:59.127Z,6.05
2022-10-18T20:46:27.393Z,5.70
2022-10-18T20:48:54.463Z,6.22
2022-10-18T20:51:22.040Z,6.43
2022-10-18T20:53:49.313Z,5.10
2022-10-18T20:56:21.921Z,4.50
2022-10-18T20:58:50.661Z,4.65
2022-10-18T21:01:17.331Z,5.55
2022-10-18T21:03:46.476Z,6.15
2022-10-18T21:06:14.569Z,6.00
2022-10-18T21:08:42.289Z,5.70
2022-10-18T21:11:09.863Z,6.10
2022-10-18T21:13:36.635Z,5.57
2022-10-18T21:16:04.797Z,4.05
2022-10-18T21:18:34.302Z,1.77
2022-10-18T21:23:40.352Z,2.22
2022-10-18T21:26:07.858Z,2.15
2022-10-18T21:28:34.656Z,2.95
2022-10-18T21:31:12.846Z,4.60
2022-10-18T21:33:40.920Z,4.47
2022-10-18T21:36:08.498Z,4.75
2022-10-18T21:38:35.825Z,5.65
2022-10-18T21:41:06.877Z,6.38
2022-10-18T21:43:33.545Z,6.53
2022-10-18T21:46:01.066Z,6.75
2022-10-18T21:48:29.120Z,7.32
2022-10-18T21:50:55.788Z,7.15
2022-10-18T21:53:22.479Z,6.88
2022-10-18T21:55:49.423Z,6.53
2022-10-18T21:58:16.089Z,6.10
2022-10-18T22:00:42.774Z,6.93
2022-10-18T22:03:10.926Z,6.28
2022-10-18T22:05:37.576Z,6.45
2022-10-18T22:08:05.268Z,6.67
2022-10-18T22:10:32.746Z,6.43
2022-10-18T22:12:59.808Z,6.78
2022-10-18T22:15:26.506Z,6.68
2022-10-18T22:17:53.265Z,6.95
2022-10-18T22:20:20.043Z,6.70
2022-10-18T22:22:46.799Z,6.30
2022-10-18T22:25:13.662Z,6.50
2022-10-18T22:27:40.471Z,5.88
2022-10-18T22:30:07.817Z,4.85
2022-10-18T22:32:34.490Z,4.57
2022-10-18T22:35:01.213Z,4.60
2022-10-18T22:37:27.988Z,4.90
2022-10-18T22:39:54.707Z,4.90
2022-10-18T22:42:21.445Z,5.03
2022-10-18T22:44:48.154Z,4.87
2022-10-18T22:47:14.846Z,5.57
2022-10-18T22:49:41.517Z,6.18
2022-10-18T22:52:08.256Z,6.53
2022-10-18T22:54:34.953Z,6.63
2022-10-18T22:57:01.646Z,6.73
2022-10-18T22:59:28.325Z,7.68
2022-10-18T23:01:54.981Z,7.30
2022-10-18T23:04:21.656Z,7.28
2022-10-18T23:06:48.325Z,6.95
2022-10-18T23:09:15.027Z,6.93
2022-10-18T23:11:41.952Z,7.18
2022-10-18T23:14:08.634Z,6.85
2022-10-18T23:16:35.637Z,5.53
2022-10-18T23:19:02.730Z,4.45
2022-10-18T23:21:29.709Z,3.10
2022-10-18T23:23:57.550Z,2.85
2022-10-18T23:26:26.278Z,3.00
2022-10-18T23:28:54.086Z,3.25
2022-10-18T23:31:23.820Z,3.60
2022-10-18T23:33:54.253Z,3.30
2022-10-18T23:36:21.854Z,3.17
2022-10-18T23:38:48.703Z,3.45
2022-10-18T23:41:16.469Z,3.75
2022-10-18T23:43:43.661Z,4.15
2022-10-18T23:46:10.545Z,4.53
2022-10-18T23:48:37.453Z,4.93
2022-10-18T23:51:04.716Z,5.53
2022-10-18T23:53:32.182Z,4.78
2022-10-18T23:56:07.291Z,5.10
2022-10-18T23:58:35.235Z,5.40
